Lemsford, United Kingdom
Current Conditions -  °F | °C
As of 1:20 AM on Wednesday 28 Jan 2015 (Local Time) from EGGW Reporting Station
Broken Clouds Broken Clouds  
Wind Chill: 35°   Ceiling: 1100
Heat Index: 41°   Visibility: 6mi
Dew Point: 39°   Wind: 9mph
Humidity: 93%   Direction: 190°S
Pressure: 29.97"   Gusts: NA
Location:  51.8°N, 0.21°W
Report Text: EGGW 280120Z 19008KT 160V230 9999 BKN011 05/04 Q1015
Loading
Personal Weather Stations






























Interactive Weather Map New forecast layout! Learn more

10-Day Weather Forecast

Advertisements
Track Severe Weather on mobile